Independence, Minnesota
Current Conditions -  °F | °C
As of 4:34 AM on Thursday 27 Nov 2014 (Local Time) from KCFE Reporting Station
Clear Clear  
Wind Chill: -10°   Ceiling: Unl
Heat Index:   Visibility: 10mi
Dew Point: -5°   Wind: 5mph
Humidity: 80%   Direction: 330°NNW
Pressure: 30.49"   Gusts: NA
Location:  45.1045°N, 93.6647°W
Report Text: KCFE 271034Z AUTO 33004KT 10SM CLR M18/M20 A3049 RMK AO2 T11781205
Loading
Personal Weather Stations






























Interactive Weather Map New forecast layout! Learn more

10-Day Weather Forecast

Advertisements
Track Severe Weather on mobile